createdAt,value
2023-03-21T00:00:23.980Z,6.03
2023-03-21T00:02:51.340Z,5.55
2023-03-21T00:05:18.074Z,4.75
2023-03-21T00:07:44.633Z,5.30
2023-03-21T00:10:16.646Z,5.55
2023-03-21T00:12:47.398Z,5.50
2023-03-21T00:15:14.053Z,5.30
2023-03-21T00:17:40.737Z,5.18
2023-03-21T00:20:11.886Z,5.05
2023-03-21T00:22:39.403Z,5.45
2023-03-21T00:25:06.236Z,5.40
2023-03-21T00:27:53.382Z,5.78
2023-03-21T00:30:21.969Z,5.45
2023-03-21T00:32:56.621Z,5.40
2023-03-21T00:35:57.524Z,5.78
2023-03-21T00:38:12.550Z,5.70
2023-03-21T00:40:47.154Z,6.40
2023-03-21T00:43:17.594Z,6.07
2023-03-21T00:45:44.427Z,5.88
2023-03-21T00:48:11.203Z,5.63
2023-03-21T00:50:38.977Z,5.45
2023-03-21T00:53:06.202Z,5.10
2023-03-21T00:55:32.973Z,4.93
2023-03-21T00:58:02.156Z,4.13
2023-03-21T01:00:29.539Z,3.75
2023-03-21T01:03:11.296Z,3.47
2023-03-21T01:06:04.322Z,2.65
2023-03-21T01:08:51.838Z,2.85
2023-03-21T01:11:21.345Z,2.78
2023-03-21T01:13:54.731Z,2.78
2023-03-21T01:16:25.356Z,2.70
2023-03-21T01:18:52.845Z,2.50
2023-03-21T01:21:19.929Z,2.60
2023-03-21T01:23:46.442Z,2.72
2023-03-21T01:26:13.994Z,3.30
2023-03-21T01:28:41.665Z,2.40
2023-03-21T01:31:08.808Z,3.28
2023-03-21T01:33:36.032Z,2.38
2023-03-21T01:36:12.653Z,2.92
2023-03-21T01:38:42.439Z,2.42
2023-03-21T01:41:20.118Z,2.50
2023-03-21T01:43:47.729Z,2.47
2023-03-21T01:46:21.243Z,2.30
2023-03-21T01:49:14.119Z,2.70
2023-03-21T01:51:45.972Z,2.70
2023-03-21T01:54:15.504Z,2.33
2023-03-21T01:56:43.264Z,2.50
2023-03-21T01:59:17.369Z,2.55
2023-03-21T02:02:07.245Z,2.80
2023-03-21T02:04:40.175Z,2.65
2023-03-21T02:07:19.125Z,2.78
2023-03-21T02:09:51.999Z,2.47
2023-03-21T02:12:21.336Z,2.85
2023-03-21T02:14:49.594Z,2.60
2023-03-21T02:17:50.943Z,2.60
2023-03-21T02:20:40.514Z,2.75
2023-03-21T02:23:07.513Z,3.03
2023-03-21T02:25:49.494Z,3.05
2023-03-21T02:28:22.003Z,2.75
2023-03-21T02:31:07.591Z,2.95
2023-03-21T02:33:53.075Z,3.47
2023-03-21T02:36:28.802Z,3.95
2023-03-21T02:38:58.409Z,4.45
2023-03-21T02:41:35.092Z,4.60
2023-03-21T02:44:10.426Z,4.85
2023-03-21T02:47:02.909Z,4.28
2023-03-21T02:49:42.872Z,4.57
2023-03-21T02:52:25.493Z,4.18
2023-03-21T02:55:00.109Z,4.25
2023-03-21T02:57:42.647Z,4.78
2023-03-21T03:00:16.764Z,4.55
2023-03-21T03:02:47.451Z,4.88
2023-03-21T03:05:22.926Z,4.50
2023-03-21T03:08:32.422Z,4.75
2023-03-21T03:11:28.824Z,4.25
2023-03-21T03:14:36.749Z,4.28
2023-03-21T03:17:05.491Z,5.03
2023-03-21T03:19:47.998Z,4.13
2023-03-21T03:22:23.610Z,4.28
2023-03-21T03:25:04.740Z,4.65
2023-03-21T03:27:43.489Z,5.22
2023-03-21T03:30:10.961Z,4.63
2023-03-21T03:32:49.981Z,4.75
2023-03-21T03:35:20.080Z,4.32
2023-03-21T03:37:49.390Z,5.32
2023-03-21T03:40:18.969Z,4.75
2023-03-21T03:42:56.904Z,5.10
2023-03-21T03:45:34.203Z,5.22
2023-03-21T03:48:11.743Z,4.78
2023-03-21T03:50:45.622Z,4.95
2023-03-21T03:55:47.104Z,4.68
2023-03-21T03:58:24.767Z,4.88
2023-03-21T04:00:56.922Z,5.22
2023-03-21T04:03:27.265Z,4.72
2023-03-21T04:05:54.084Z,5.25
2023-03-21T04:08:23.251Z,5.82
2023-03-21T04:10:53.311Z,5.55
2023-03-21T04:13:20.329Z,5.93
2023-03-21T04:16:03.733Z,5.75
2023-03-21T04:18:30.540Z,5.88
2023-03-21T04:20:58.335Z,6.18
2023-03-21T04:23:29.230Z,6.32
2023-03-21T04:25:57.256Z,6.22
2023-03-21T04:28:36.473Z,7.07
2023-03-21T04:31:26.071Z,7.28
2023-03-21T04:34:01.818Z,7.13
2023-03-21T04:36:38.646Z,7.47
2023-03-21T04:39:12.373Z,8.02
2023-03-21T04:41:40.389Z,8.35
2023-03-21T04:44:07.684Z,8.13
2023-03-21T04:46:34.598Z,7.63
2023-03-21T04:49:01.535Z,7.80
2023-03-21T04:51:28.712Z,7.95
2023-03-21T04:53:58.292Z,8.38
2023-03-21T04:56:36.531Z,8.85
2023-03-21T04:59:06.506Z,8.63
2023-03-21T05:01:33.992Z,8.40
2023-03-21T05:04:01.703Z,8.88
2023-03-21T05:06:32.084Z,8.55
2023-03-21T05:09:05.622Z,8.38
2023-03-21T05:11:35.802Z,9.25
2023-03-21T05:14:02.276Z,9.40
2023-03-21T05:16:30.821Z,9.63
2023-03-21T05:19:04.976Z,8.32
2023-03-21T05:21:43.409Z,9.48
2023-03-21T05:24:20.053Z,9.80
2023-03-21T05:26:50.609Z,9.35
2023-03-21T05:29:19.250Z,9.20
2023-03-21T05:31:54.809Z,9.32
2023-03-21T05:34:21.450Z,9.05
2023-03-21T05:36:48.132Z,9.30
2023-03-21T05:39:15.574Z,9.07
2023-03-21T05:41:50.492Z,8.85
2023-03-21T05:44:17.076Z,8.85
2023-03-21T05:46:43.693Z,8.73
2023-03-21T05:49:11.417Z,9.10
2023-03-21T05:51:38.507Z,8.85
2023-03-21T05:54:05.265Z,8.65
2023-03-21T05:56:32.110Z,8.82
2023-03-21T05:59:03.348Z,8.43
2023-03-21T06:01:33.298Z,8.85
2023-03-21T06:04:11.694Z,8.57
2023-03-21T06:06:39.468Z,9.00
2023-03-21T06:09:06.642Z,8.35
2023-03-21T06:11:34.849Z,7.65
2023-03-21T06:14:30.719Z,7.38
2023-03-21T06:17:23.360Z,7.80
2023-03-21T06:19:57.163Z,7.13
2023-03-21T06:22:30.620Z,7.47
2023-03-21T06:24:57.235Z,7.55
2023-03-21T06:27:24.258Z,7.28
2023-03-21T06:29:53.715Z,7.57
2023-03-21T06:32:21.237Z,7.15
2023-03-21T06:34:51.659Z,6.78
2023-03-21T06:37:18.917Z,6.90
2023-03-21T06:39:46.975Z,6.53
2023-03-21T06:42:14.641Z,6.80
2023-03-21T06:44:41.473Z,6.95
2023-03-21T06:47:13.063Z,6.90
2023-03-21T06:49:42.887Z,6.78
2023-03-21T06:52:11.471Z,5.90
2023-03-21T06:54:38.469Z,6.57
2023-03-21T06:57:13.484Z,6.18
2023-03-21T06:59:41.963Z,5.80
2023-03-21T07:02:28.912Z,5.57
2023-03-21T07:05:16.814Z,6.15
2023-03-21T07:07:43.836Z,6.75
2023-03-21T07:10:10.747Z,6.53
2023-03-21T07:12:59.558Z,5.15
2023-03-21T07:15:41.302Z,5.53
2023-03-21T07:18:09.276Z,6.13
2023-03-21T07:20:37.954Z,5.88
2023-03-21T07:23:04.662Z,5.40
2023-03-21T07:25:31.250Z,5.32
2023-03-21T07:27:58.053Z,5.93
2023-03-21T07:30:24.773Z,5.72
2023-03-21T07:32:51.307Z,5.53
2023-03-21T07:35:18.114Z,5.43
2023-03-21T07:37:44.553Z,6.03
2023-03-21T07:40:15.717Z,5.78
2023-03-21T07:42:42.494Z,5.32
2023-03-21T07:45:16.641Z,5.47
2023-03-21T07:47:45.972Z,5.40
2023-03-21T07:50:12.741Z,5.70
2023-03-21T07:52:41.184Z,5.60
2023-03-21T07:55:07.908Z,5.15
2023-03-21T07:57:34.483Z,5.70
2023-03-21T08:00:04.550Z,6.13
2023-03-21T08:02:40.216Z,6.80
2023-03-21T08:05:12.289Z,6.35
2023-03-21T08:07:38.782Z,7.28
2023-03-21T08:10:05.882Z,7.30
2023-03-21T08:12:32.360Z,6.78
2023-03-21T08:15:01.046Z,6.63
2023-03-21T08:17:27.972Z,6.95
2023-03-21T08:19:55.116Z,6.57
2023-03-21T08:22:21.726Z,6.30
2023-03-21T08:24:48.655Z,5.90
2023-03-21T08:27:15.419Z,6.00
2023-03-21T08:29:42.426Z,5.88
2023-03-21T08:32:10.416Z,6.30
2023-03-21T08:34:40.680Z,5.95
2023-03-21T08:37:07.172Z,6.30
2023-03-21T08:39:34.309Z,5.95
2023-03-21T08:42:00.875Z,5.40
2023-03-21T08:44:27.544Z,6.07
2023-03-21T08:46:54.211Z,6.13
2023-03-21T08:49:20.709Z,5.57
2023-03-21T08:51:47.488Z,5.72
2023-03-21T08:54:19.162Z,5.03
2023-03-21T08:56:45.878Z,5.60
2023-03-21T08:59:13.120Z,5.47
2023-03-21T09:01:39.788Z,5.22
2023-03-21T09:04:07.992Z,5.53
2023-03-21T09:06:35.174Z,5.10
2023-03-21T09:09:01.817Z,5.28
2023-03-21T09:11:28.399Z,4.50
2023-03-21T09:13:54.860Z,4.25
2023-03-21T09:16:21.560Z,4.38
2023-03-21T09:18:50.506Z,4.15
2023-03-21T09:21:18.218Z,4.57
2023-03-21T09:23:45.387Z,4.07
2023-03-21T09:26:13.392Z,4.70
2023-03-21T09:28:40.759Z,3.40
2023-03-21T09:31:09.295Z,4.15
2023-03-21T09:33:36.074Z,4.40
2023-03-21T09:36:03.680Z,4.63
2023-03-21T09:38:30.775Z,4.00
2023-03-21T09:41:16.281Z,3.90
2023-03-21T09:43:49.693Z,3.60
2023-03-21T09:46:19.188Z,3.20
2023-03-21T09:48:57.743Z,3.40
2023-03-21T09:51:36.986Z,3.45
2023-03-21T09:54:07.610Z,3.50
2023-03-21T09:56:36.576Z,3.20
2023-03-21T09:59:07.227Z,2.63
2023-03-21T10:01:38.236Z,2.78
2023-03-21T10:04:06.435Z,2.72
2023-03-21T10:06:35.803Z,3.35
2023-03-21T10:09:09.328Z,2.95
2023-03-21T10:11:43.160Z,2.83
2023-03-21T10:14:15.282Z,2.72
2023-03-21T10:16:43.453Z,3.00
2023-03-21T10:19:14.326Z,2.58
2023-03-21T10:22:03.751Z,2.42
2023-03-21T10:24:32.040Z,2.33
2023-03-21T10:26:59.002Z,2.58
2023-03-21T10:29:32.173Z,2.13
2023-03-21T10:31:58.944Z,2.25
2023-03-21T10:34:32.564Z,2.45
2023-03-21T10:37:00.806Z,2.42
2023-03-21T10:39:36.176Z,2.38
2023-03-21T10:42:05.273Z,2.35
2023-03-21T10:44:32.809Z,2.30
2023-03-21T10:47:09.822Z,2.30
2023-03-21T10:49:56.465Z,1.70
2023-03-21T10:52:27.497Z,2.00
2023-03-21T10:55:06.471Z,1.90
2023-03-21T10:57:33.444Z,2.45
2023-03-21T11:00:02.253Z,1.45
2023-03-21T11:02:34.167Z,1.90
2023-03-21T11:05:06.171Z,1.55
2023-03-21T11:07:33.422Z,1.55
2023-03-21T11:10:00.866Z,1.55
2023-03-21T11:12:33.418Z,1.77
2023-03-21T11:15:20.695Z,1.50
2023-03-21T11:17:47.978Z,1.20
2023-03-21T11:20:18.917Z,1.65
2023-03-21T11:22:46.443Z,1.50
2023-03-21T11:25:31.485Z,1.80
2023-03-21T11:27:58.389Z,1.40
2023-03-21T11:30:26.319Z,1.45
2023-03-21T11:33:01.914Z,0.98
2023-03-21T11:37:56.384Z,1.40
2023-03-21T11:40:25.730Z,1.83
2023-03-21T11:42:53.562Z,2.10
2023-03-21T11:45:33.702Z,1.88
2023-03-21T11:48:01.270Z,1.90
2023-03-21T11:50:30.885Z,1.90
2023-03-21T11:53:15.685Z,2.30
2023-03-21T11:55:42.162Z,1.83
2023-03-21T11:58:14.567Z,2.13
2023-03-21T12:00:41.777Z,2.10
2023-03-21T12:03:28.838Z,1.92
2023-03-21T12:06:00.523Z,2.17
2023-03-21T12:08:32.901Z,2.30
2023-03-21T12:11:16.758Z,2.03
2023-03-21T12:13:43.316Z,2.03
2023-03-21T12:16:09.799Z,1.77
2023-03-21T12:18:49.297Z,2.53
2023-03-21T12:21:20.812Z,1.90
2023-03-21T12:24:05.984Z,1.80
2023-03-21T12:26:37.068Z,2.10
2023-03-21T12:29:41.952Z,1.88
2023-03-21T12:32:08.458Z,2.00
2023-03-21T12:34:41.777Z,1.13
2023-03-21T12:37:26.601Z,1.83
2023-03-21T12:39:55.536Z,1.92
2023-03-21T12:42:34.598Z,2.25
2023-03-21T12:45:15.629Z,1.50
2023-03-21T12:47:45.058Z,1.55
2023-03-21T12:50:18.083Z,1.73
2023-03-21T12:52:47.295Z,2.10
2023-03-21T12:55:13.825Z,1.95
2023-03-21T12:57:57.757Z,1.58
2023-03-21T13:00:33.482Z,2.05
2023-03-21T13:05:41.069Z,1.90
2023-03-21T13:08:12.138Z,2.38
2023-03-21T13:10:41.629Z,1.98
2023-03-21T13:13:09.916Z,1.80
2023-03-21T13:15:39.674Z,1.80
2023-03-21T13:18:24.857Z,2.00
2023-03-21T13:20:58.667Z,1.43
2023-03-21T13:23:26.089Z,1.90
2023-03-21T13:25:54.883Z,1.85
2023-03-21T13:28:27.553Z,1.85
2023-03-21T13:31:14.003Z,1.85
2023-03-21T13:33:44.708Z,1.98
2023-03-21T13:36:12.992Z,2.05
2023-03-21T13:38:43.330Z,1.70
2023-03-21T13:41:28.453Z,2.22
2023-03-21T13:44:01.018Z,2.23
2023-03-21T13:46:27.878Z,2.25
2023-03-21T13:49:02.576Z,1.90
2023-03-21T13:51:29.196Z,1.70
2023-03-21T13:54:01.737Z,1.70
2023-03-21T13:56:30.517Z,2.40
2023-03-21T13:59:01.443Z,2.15
2023-03-21T14:01:36.104Z,2.15
2023-03-21T14:04:05.484Z,2.00
2023-03-21T14:06:38.049Z,2.00
2023-03-21T14:09:05.018Z,1.80
2023-03-21T14:11:32.561Z,2.42
2023-03-21T14:14:00.551Z,1.65
2023-03-21T14:16:30.217Z,1.80
2023-03-21T14:19:00.249Z,1.70
2023-03-21T14:21:29.473Z,1.90
2023-03-21T14:23:57.396Z,1.65
2023-03-21T14:26:25.928Z,1.25
2023-03-21T14:28:52.644Z,1.40
2023-03-21T14:31:21.083Z,1.60
2023-03-21T14:33:54.077Z,2.20
2023-03-21T14:36:24.180Z,1.48
2023-03-21T14:39:01.983Z,1.50
2023-03-21T14:41:30.122Z,1.65
2023-03-21T14:44:15.693Z,2.00
2023-03-21T14:46:44.233Z,1.60
2023-03-21T14:49:18.678Z,1.70
2023-03-21T14:51:47.152Z,1.50
2023-03-21T14:54:17.573Z,1.90
2023-03-21T14:56:48.707Z,1.90
2023-03-21T14:59:17.180Z,2.00
2023-03-21T15:01:46.161Z,1.67
2023-03-21T15:04:14.930Z,1.67
2023-03-21T15:06:52.132Z,1.90
2023-03-21T15:09:22.352Z,1.80
2023-03-21T15:11:51.668Z,1.98
2023-03-21T15:14:19.293Z,1.70
2023-03-21T15:16:45.989Z,2.13
2023-03-21T15:19:16.390Z,2.05
2023-03-21T15:21:45.650Z,1.60
2023-03-21T15:24:17.094Z,1.98
2023-03-21T15:26:45.506Z,2.08
2023-03-21T15:29:12.784Z,1.95
2023-03-21T15:31:40.690Z,2.13
2023-03-21T15:34:08.055Z,2.05
2023-03-21T15:36:35.484Z,1.90
2023-03-21T15:39:03.921Z,1.70
2023-03-21T15:41:31.751Z,1.95
2023-03-21T15:44:02.786Z,1.80
2023-03-21T15:46:34.894Z,2.25
2023-03-21T15:49:18.443Z,1.77
2023-03-21T15:51:45.001Z,1.70
2023-03-21T15:54:24.670Z,1.90
2023-03-21T15:57:04.892Z,2.00
2023-03-21T15:59:33.470Z,2.05
2023-03-21T16:02:00.166Z,2.40
2023-03-21T16:04:26.993Z,2.33
2023-03-21T16:06:57.171Z,2.20
2023-03-21T16:09:25.459Z,1.80
2023-03-21T16:11:51.891Z,2.15
2023-03-21T16:14:19.164Z,2.30
2023-03-21T16:16:46.004Z,2.20
2023-03-21T16:19:12.611Z,2.30
2023-03-21T16:21:39.470Z,2.40
2023-03-21T16:24:06.653Z,2.17
2023-03-21T16:26:34.450Z,2.38
2023-03-21T16:29:01.357Z,1.98
2023-03-21T16:31:29.770Z,2.38
2023-03-21T16:33:56.482Z,2.67
2023-03-21T16:36:24.519Z,1.90
2023-03-21T16:38:54.384Z,1.65
2023-03-21T16:41:25.667Z,1.80
2023-03-21T16:43:53.325Z,1.77
2023-03-21T16:46:21.164Z,1.83
2023-03-21T16:48:49.171Z,2.08
2023-03-21T16:51:16.531Z,1.50
2023-03-21T16:53:45.612Z,1.70
2023-03-21T16:56:17.178Z,2.00
2023-03-21T16:58:43.863Z,1.98
2023-03-21T17:01:19.464Z,1.75
2023-03-21T17:03:49.810Z,1.70
2023-03-21T17:06:17.746Z,1.73
2023-03-21T17:08:44.769Z,2.17
2023-03-21T17:11:12.716Z,2.20
2023-03-21T17:13:39.367Z,1.88
2023-03-21T17:16:07.212Z,2.40
2023-03-21T17:18:34.671Z,1.75
2023-03-21T17:21:01.124Z,1.48
2023-03-21T17:23:28.034Z,1.45
2023-03-21T17:25:56.220Z,1.60
2023-03-21T17:28:23.031Z,1.45
2023-03-21T17:30:49.678Z,1.60
2023-03-21T17:33:16.298Z,1.20
2023-03-21T17:35:42.832Z,1.63
2023-03-21T17:38:12.820Z,1.30
2023-03-21T17:40:39.684Z,1.45
2023-03-21T17:43:07.079Z,1.55
2023-03-21T17:45:33.716Z,1.70
2023-03-21T17:48:00.443Z,1.67
2023-03-21T17:50:34.110Z,1.80
2023-03-21T17:53:01.283Z,1.88
2023-03-21T17:55:27.994Z,2.00
2023-03-21T17:57:54.561Z,2.15
2023-03-21T18:00:25.594Z,2.13
2023-03-21T18:02:52.836Z,2.40
2023-03-21T18:05:21.266Z,2.50
2023-03-21T18:10:35.617Z,2.58
2023-03-21T18:13:02.276Z,2.65
2023-03-21T18:15:30.487Z,2.45
2023-03-21T18:17:57.662Z,2.40
2023-03-21T18:20:44.466Z,2.47
2023-03-21T18:23:14.304Z,2.05
2023-03-21T18:25:41.750Z,2.10
2023-03-21T18:28:11.981Z,2.10
2023-03-21T18:30:57.026Z,1.58
2023-03-21T18:33:27.338Z,1.83
2023-03-21T18:35:59.171Z,1.70
2023-03-21T18:38:26.445Z,1.77
2023-03-21T18:40:53.736Z,1.95
2023-03-21T18:46:08.383Z,2.22
2023-03-21T18:48:35.661Z,2.22
2023-03-21T18:51:03.022Z,2.17
2023-03-21T18:53:29.932Z,1.90
2023-03-21T18:55:57.420Z,2.42
2023-03-21T18:58:24.864Z,2.67
2023-03-21T19:00:55.760Z,2.20
2023-03-21T19:03:35.443Z,3.50
2023-03-21T19:06:03.942Z,2.30
2023-03-21T19:08:31.184Z,2.50
2023-03-21T19:11:00.272Z,2.47
2023-03-21T19:13:30.229Z,2.75
2023-03-21T19:15:57.073Z,2.55
2023-03-21T19:18:44.979Z,2.75
2023-03-21T19:21:11.456Z,2.42
2023-03-21T19:24:07.889Z,2.70
2023-03-21T19:26:25.509Z,3.05
2023-03-21T19:28:52.587Z,2.90
2023-03-21T19:31:21.043Z,3.35
2023-03-21T19:33:48.548Z,2.90
2023-03-21T19:36:21.954Z,3.13
2023-03-21T19:38:50.526Z,2.90
2023-03-21T19:41:17.709Z,2.83
2023-03-21T19:43:53.580Z,2.80
2023-03-21T19:46:24.642Z,2.90
2023-03-21T19:48:51.582Z,2.72
2023-03-21T19:51:28.147Z,3.33
2023-03-21T19:53:55.892Z,2.97
2023-03-21T19:56:26.592Z,2.40
2023-03-21T19:58:53.996Z,2.80
2023-03-21T20:01:21.439Z,2.42
2023-03-21T20:03:48.590Z,2.65
2023-03-21T20:06:16.260Z,2.67
2023-03-21T20:09:17.166Z,2.63
2023-03-21T20:11:29.404Z,2.85
2023-03-21T20:13:56.464Z,2.45
2023-03-21T20:16:23.214Z,2.47
2023-03-21T20:18:52.642Z,3.75
2023-03-21T20:21:25.428Z,3.58
2023-03-21T20:23:52.935Z,3.03
2023-03-21T20:26:20.321Z,2.80
2023-03-21T20:28:56.507Z,2.80
2023-03-21T20:31:34.344Z,2.80
2023-03-21T20:34:01.018Z,2.95
2023-03-21T20:36:43.925Z,3.03
2023-03-21T20:39:10.999Z,2.92
2023-03-21T20:41:38.182Z,3.05
2023-03-21T20:46:51.723Z,2.97
2023-03-21T20:49:20.088Z,3.45
2023-03-21T20:52:46.233Z,3.50
2023-03-21T20:54:34.851Z,3.72
2023-03-21T20:57:01.601Z,3.78
2023-03-21T20:59:29.224Z,3.38
2023-03-21T21:01:57.638Z,3.70
2023-03-21T21:04:41.177Z,3.90
2023-03-21T21:07:16.047Z,4.03
2023-03-21T21:09:43.601Z,3.53
2023-03-21T21:12:10.782Z,3.75
2023-03-21T21:14:38.163Z,3.67
2023-03-21T21:17:23.864Z,4.63
2023-03-21T21:19:51.560Z,4.00
2023-03-21T21:22:18.080Z,4.32
2023-03-21T21:24:44.773Z,4.20
2023-03-21T21:27:12.023Z,4.45
2023-03-21T21:29:38.553Z,4.82
2023-03-21T21:32:05.348Z,5.75
2023-03-21T21:34:32.423Z,4.72
2023-03-21T21:36:59.155Z,5.10
2023-03-21T21:39:26.549Z,5.40
2023-03-21T21:41:53.971Z,5.07
2023-03-21T21:44:20.743Z,5.15
2023-03-21T21:46:47.318Z,5.53
2023-03-21T21:49:13.946Z,5.25
2023-03-21T21:51:41.822Z,5.65
2023-03-21T21:54:08.384Z,5.78
2023-03-21T21:56:36.881Z,7.10
2023-03-21T21:59:04.551Z,6.93
2023-03-21T22:01:34.787Z,7.75
2023-03-21T22:04:06.498Z,7.35
2023-03-21T22:06:34.149Z,6.95
2023-03-21T22:09:01.102Z,7.20
2023-03-21T22:11:27.740Z,7.20
2023-03-21T22:13:54.201Z,7.10
2023-03-21T22:16:21.106Z,7.35
2023-03-21T22:18:47.892Z,7.90
2023-03-21T22:21:14.417Z,7.68
2023-03-21T22:23:43.824Z,8.13
2023-03-21T22:26:10.731Z,7.78
2023-03-21T22:28:40.505Z,8.30
2023-03-21T22:31:12.425Z,8.75
2023-03-21T22:33:39.069Z,8.90
2023-03-21T22:36:06.010Z,8.98
2023-03-21T22:38:34.668Z,8.93
2023-03-21T22:41:02.464Z,8.85
2023-03-21T22:43:34.358Z,9.65
2023-03-21T22:46:02.469Z,8.75
2023-03-21T22:48:30.145Z,9.05
2023-03-21T22:50:57.233Z,9.88
2023-03-21T22:53:24.358Z,9.43
2023-03-21T22:55:51.161Z,9.95
2023-03-21T22:58:18.049Z,9.25
2023-03-21T23:00:44.530Z,9.23
2023-03-21T23:03:12.996Z,9.35
2023-03-21T23:05:40.199Z,9.15
2023-03-21T23:08:07.342Z,9.75
2023-03-21T23:10:33.884Z,9.48
2023-03-21T23:13:00.462Z,8.32
2023-03-21T23:15:26.926Z,7.93
2023-03-21T23:17:53.566Z,8.18
2023-03-21T23:20:20.312Z,8.32
2023-03-21T23:22:47.421Z,7.88
2023-03-21T23:25:13.930Z,8.13
2023-03-21T23:27:40.750Z,8.38
2023-03-21T23:30:07.593Z,8.10
2023-03-21T23:32:34.255Z,7.38
2023-03-21T23:35:00.881Z,8.48
2023-03-21T23:37:29.976Z,7.78
2023-03-21T23:39:56.653Z,6.90
2023-03-21T23:42:23.951Z,7.22
2023-03-21T23:44:50.778Z,7.00
2023-03-21T23:47:17.364Z,7.35
2023-03-21T23:49:49.207Z,6.88
2023-03-21T23:52:17.140Z,6.75
2023-03-21T23:54:43.705Z,6.88
2023-03-21T23:57:10.963Z,6.28
2023-03-21T23:59:37.474Z,6.03
